createdAt,value
2023-01-30T00:01:36.362Z,14.98
2023-01-30T00:04:03.726Z,17.35
2023-01-30T00:06:32.748Z,15.85
2023-01-30T00:08:59.980Z,18.00
2023-01-30T00:11:30.290Z,16.00
2023-01-30T00:13:57.764Z,16.20
2023-01-30T00:16:25.369Z,15.57
2023-01-30T00:18:52.752Z,15.80
2023-01-30T00:21:20.085Z,16.17
2023-01-30T00:23:48.847Z,19.40
2023-01-30T00:26:16.115Z,20.88
2023-01-30T00:28:43.581Z,17.58
2023-01-30T00:31:11.059Z,17.45
2023-01-30T00:33:39.588Z,18.23
2023-01-30T00:36:07.746Z,18.53
2023-01-30T00:38:35.252Z,18.05
2023-01-30T00:41:04.241Z,19.05
2023-01-30T00:43:50.050Z,18.83
2023-01-30T00:46:43.393Z,16.80
2023-01-30T00:49:11.023Z,16.07
2023-01-30T00:51:38.522Z,17.27
2023-01-30T00:54:05.849Z,14.82
2023-01-30T00:56:34.634Z,13.82
2023-01-30T00:59:02.259Z,12.57
2023-01-30T01:01:29.619Z,13.13
2023-01-30T01:03:57.174Z,12.98
2023-01-30T01:06:24.753Z,12.57
2023-01-30T01:08:52.001Z,13.02
2023-01-30T01:11:25.714Z,13.70
2023-01-30T01:13:55.869Z,13.43
2023-01-30T01:16:23.816Z,11.65
2023-01-30T01:18:51.971Z,12.15
2023-01-30T01:21:20.429Z,11.70
2023-01-30T01:23:50.610Z,12.88
2023-01-30T01:26:18.096Z,13.50
2023-01-30T01:28:47.277Z,16.15
2023-01-30T01:31:17.613Z,18.55
2023-01-30T01:33:45.148Z,16.65
2023-01-30T01:36:20.086Z,18.58
2023-01-30T01:38:56.911Z,16.80
2023-01-30T01:41:24.371Z,17.80
2023-01-30T01:44:04.963Z,20.30
2023-01-30T01:46:37.233Z,20.30
2023-01-30T01:49:12.682Z,22.27
2023-01-30T01:51:43.195Z,19.87
2023-01-30T01:54:16.271Z,17.00
2023-01-30T01:56:45.911Z,17.15
2023-01-30T01:59:20.769Z,15.50
2023-01-30T02:01:52.174Z,11.80
2023-01-30T02:04:39.571Z,12.10
2023-01-30T02:07:07.649Z,11.25
2023-01-30T02:09:35.332Z,11.85
2023-01-30T02:12:04.836Z,10.68
2023-01-30T02:14:34.238Z,10.68
2023-01-30T02:17:03.106Z,11.37
2023-01-30T02:19:39.359Z,11.40
2023-01-30T02:22:42.737Z,11.35
2023-01-30T02:25:52.049Z,11.68
2023-01-30T02:28:48.025Z,10.82
2023-01-30T02:31:36.686Z,11.47
2023-01-30T02:34:20.517Z,11.98
2023-01-30T02:36:57.549Z,9.57
2023-01-30T02:39:38.137Z,9.63
2023-01-30T02:42:12.146Z,9.60
2023-01-30T02:44:50.432Z,10.03
2023-01-30T02:47:24.577Z,10.20
2023-01-30T02:49:57.343Z,10.75
2023-01-30T02:52:25.707Z,10.18
2023-01-30T02:54:53.124Z,10.02
2023-01-30T02:57:21.594Z,10.20
2023-01-30T02:59:51.829Z,9.45
2023-01-30T03:02:42.429Z,10.68
2023-01-30T03:05:27.402Z,9.35
2023-01-30T03:08:04.933Z,9.25
2023-01-30T03:10:38.527Z,10.80
2023-01-30T03:13:12.324Z,10.02
2023-01-30T03:15:43.097Z,10.55
2023-01-30T03:18:12.190Z,9.70
2023-01-30T03:20:41.381Z,9.43
2023-01-30T03:23:09.612Z,9.37
2023-01-30T03:25:39.535Z,8.82
2023-01-30T03:28:08.431Z,9.88
2023-01-30T03:30:36.019Z,8.80
2023-01-30T03:33:03.442Z,7.90
2023-01-30T03:35:32.631Z,9.03
2023-01-30T03:37:59.910Z,9.45
2023-01-30T03:40:27.569Z,8.05
2023-01-30T03:42:55.091Z,9.27
2023-01-30T03:45:22.405Z,8.25
2023-01-30T03:47:49.967Z,9.00
2023-01-30T03:50:17.622Z,8.70
2023-01-30T03:52:46.812Z,9.52
2023-01-30T03:55:14.371Z,9.55
2023-01-30T03:57:41.662Z,9.07
2023-01-30T04:00:10.367Z,9.40
2023-01-30T04:02:38.826Z,9.57
2023-01-30T04:05:06.665Z,8.98
2023-01-30T04:07:34.175Z,8.75
2023-01-30T04:10:02.969Z,8.63
2023-01-30T04:12:30.255Z,8.33
2023-01-30T04:14:57.817Z,9.05
2023-01-30T04:17:25.359Z,10.13
2023-01-30T04:19:52.761Z,9.10
2023-01-30T04:22:20.212Z,10.70
2023-01-30T04:24:47.445Z,8.83
2023-01-30T04:27:16.315Z,9.07
2023-01-30T04:29:43.738Z,9.30
2023-01-30T04:32:10.973Z,8.85
2023-01-30T04:34:38.346Z,8.65
2023-01-30T04:37:05.514Z,10.13
2023-01-30T04:39:33.301Z,9.48
2023-01-30T04:42:00.700Z,8.82
2023-01-30T04:44:29.345Z,10.10
2023-01-30T04:46:57.011Z,9.90
2023-01-30T04:49:24.605Z,9.73
2023-01-30T04:51:51.971Z,10.20
2023-01-30T04:54:19.327Z,9.38
2023-01-30T04:56:46.622Z,9.23
2023-01-30T04:59:13.985Z,10.48
2023-01-30T05:01:43.128Z,8.83
2023-01-30T05:04:10.789Z,10.02
2023-01-30T05:06:38.283Z,9.27
2023-01-30T05:09:06.324Z,9.65
2023-01-30T05:11:33.950Z,9.00
2023-01-30T05:14:01.441Z,10.23
2023-01-30T05:16:29.923Z,10.73
2023-01-30T05:18:58.555Z,10.15
2023-01-30T05:21:30.783Z,9.77
2023-01-30T05:23:58.326Z,9.35
2023-01-30T05:26:26.341Z,9.70
2023-01-30T05:28:55.334Z,9.20
2023-01-30T05:31:23.092Z,9.57
2023-01-30T05:33:52.544Z,9.70
2023-01-30T05:36:23.705Z,9.25
2023-01-30T05:38:51.151Z,9.47
2023-01-30T05:41:19.322Z,8.55
2023-01-30T05:43:50.492Z,9.10
2023-01-30T05:46:18.197Z,9.95
2023-01-30T05:48:45.896Z,10.00
2023-01-30T05:51:19.051Z,9.33
2023-01-30T05:53:48.085Z,9.32
2023-01-30T05:56:15.996Z,10.00
2023-01-30T05:58:43.750Z,10.25
2023-01-30T06:01:13.041Z,10.45
2023-01-30T06:03:40.703Z,11.30
2023-01-30T06:06:08.313Z,12.18
2023-01-30T06:08:36.120Z,12.88
2023-01-30T06:11:08.338Z,15.25
2023-01-30T06:13:35.876Z,16.00
2023-01-30T06:16:07.108Z,17.23
2023-01-30T06:18:34.619Z,13.75
2023-01-30T06:21:03.924Z,14.13
2023-01-30T06:23:35.227Z,13.13
2023-01-30T06:26:06.264Z,12.32
2023-01-30T06:28:35.816Z,12.77
2023-01-30T06:31:03.477Z,12.30
2023-01-30T06:33:30.814Z,11.77
2023-01-30T06:35:59.603Z,11.18
2023-01-30T06:38:27.135Z,10.45
2023-01-30T06:40:54.422Z,11.23
2023-01-30T06:43:23.357Z,14.00
2023-01-30T06:45:50.895Z,14.60
2023-01-30T06:48:18.636Z,14.48
2023-01-30T06:50:46.741Z,13.40
2023-01-30T06:53:14.503Z,16.07
2023-01-30T06:55:41.897Z,16.05
2023-01-30T06:58:10.911Z,16.65
2023-01-30T07:00:40.846Z,14.90
2023-01-30T07:03:11.153Z,15.02
2023-01-30T07:05:39.385Z,15.50
2023-01-30T07:08:07.275Z,16.02
2023-01-30T07:10:36.069Z,15.07
2023-01-30T07:13:03.929Z,14.32
2023-01-30T07:15:31.559Z,14.45
2023-01-30T07:18:00.514Z,14.47
2023-01-30T07:20:30.126Z,12.82
2023-01-30T07:22:58.130Z,14.25
2023-01-30T07:25:29.688Z,13.20
2023-01-30T07:27:58.753Z,12.77
2023-01-30T07:30:27.531Z,13.70
2023-01-30T07:32:57.939Z,12.57
2023-01-30T07:35:28.091Z,17.90
2023-01-30T07:37:55.691Z,18.00
2023-01-30T07:40:23.853Z,16.52
2023-01-30T07:42:58.760Z,11.13
2023-01-30T07:45:26.367Z,10.10
2023-01-30T07:47:54.461Z,9.57
2023-01-30T07:50:21.679Z,10.52
2023-01-30T07:52:50.314Z,9.05
2023-01-30T07:55:17.909Z,9.50
2023-01-30T07:57:45.714Z,8.98
2023-01-30T08:00:14.330Z,10.00
2023-01-30T08:02:41.764Z,10.57
2023-01-30T08:05:09.838Z,10.40
2023-01-30T08:07:37.166Z,7.63
2023-01-30T08:10:07.131Z,8.40
2023-01-30T08:12:34.597Z,8.95
2023-01-30T08:15:01.869Z,8.68
2023-01-30T08:17:29.423Z,8.98
2023-01-30T08:19:56.682Z,10.33
2023-01-30T08:22:24.117Z,9.90
2023-01-30T08:24:51.703Z,9.25
2023-01-30T08:27:20.463Z,10.05
2023-01-30T08:29:47.785Z,8.93
2023-01-30T08:32:15.968Z,10.63
2023-01-30T08:34:43.531Z,9.43
2023-01-30T08:37:10.748Z,9.95
2023-01-30T08:39:37.983Z,9.13
2023-01-30T08:42:05.492Z,7.18
2023-01-30T08:44:34.308Z,9.02
2023-01-30T08:47:01.649Z,9.02
2023-01-30T08:49:28.913Z,10.77
2023-01-30T08:51:56.394Z,10.35
2023-01-30T08:54:25.591Z,9.00
2023-01-30T08:56:53.303Z,9.53
2023-01-30T08:59:20.701Z,10.07
2023-01-30T09:01:49.573Z,9.43
2023-01-30T09:04:16.886Z,9.93
2023-01-30T09:06:44.274Z,10.13
2023-01-30T09:09:12.043Z,9.73
2023-01-30T09:11:39.498Z,8.77
2023-01-30T09:14:06.663Z,7.72
2023-01-30T09:16:33.938Z,7.40
2023-01-30T09:19:02.588Z,8.38
2023-01-30T09:21:32.104Z,8.50
2023-01-30T09:23:59.415Z,9.27
2023-01-30T09:26:26.654Z,6.90
2023-01-30T09:28:53.979Z,8.02
2023-01-30T09:31:21.466Z,9.40
2023-01-30T09:33:49.193Z,8.60
2023-01-30T09:36:17.854Z,8.00
2023-01-30T09:38:45.085Z,8.88
2023-01-30T09:41:41.263Z,9.30
2023-01-30T09:44:34.952Z,8.98
2023-01-30T09:47:09.933Z,8.33
2023-01-30T09:49:46.141Z,7.95
2023-01-30T09:52:27.227Z,8.40
2023-01-30T09:55:02.117Z,9.38
2023-01-30T09:57:29.860Z,9.93
2023-01-30T10:00:02.827Z,9.83
2023-01-30T10:02:42.427Z,9.52
2023-01-30T10:05:10.455Z,9.00
2023-01-30T10:08:01.289Z,9.65
2023-01-30T10:10:55.054Z,9.45
2023-01-30T10:13:50.666Z,8.73
2023-01-30T10:16:21.410Z,8.23
2023-01-30T10:19:20.518Z,9.00
2023-01-30T10:21:57.618Z,8.10
2023-01-30T10:24:49.074Z,9.30
2023-01-30T10:27:17.737Z,10.48
2023-01-30T10:29:48.047Z,9.15
2023-01-30T10:32:20.287Z,9.68
2023-01-30T10:34:52.105Z,9.05
2023-01-30T10:37:26.666Z,9.02
2023-01-30T10:40:03.268Z,9.45
2023-01-30T10:42:39.456Z,8.35
2023-01-30T10:45:13.778Z,8.07
2023-01-30T10:47:53.367Z,9.07
2023-01-30T10:50:26.230Z,10.38
2023-01-30T10:53:00.227Z,9.30
2023-01-30T10:55:38.117Z,7.05
2023-01-30T10:58:18.388Z,8.10
2023-01-30T11:00:52.367Z,8.57
2023-01-30T11:03:28.625Z,9.30
2023-01-30T11:06:01.039Z,8.53
2023-01-30T11:08:30.181Z,8.02
2023-01-30T11:10:59.863Z,8.25
2023-01-30T11:13:30.683Z,8.85
2023-01-30T11:16:00.158Z,8.18
2023-01-30T11:19:17.304Z,6.78
2023-01-30T11:21:23.444Z,8.57
2023-01-30T11:23:54.651Z,8.43
2023-01-30T11:26:32.065Z,7.38
2023-01-30T11:29:16.883Z,45.03
2023-01-30T11:31:49.889Z,10.98
2023-01-30T11:34:19.136Z,10.13
2023-01-30T11:36:49.971Z,9.38
2023-01-30T11:39:23.456Z,6.90
2023-01-30T11:42:03.667Z,8.10
2023-01-30T11:44:34.368Z,9.52
2023-01-30T11:47:04.802Z,8.73
2023-01-30T11:49:46.407Z,10.00
2023-01-30T11:52:28.668Z,13.82
2023-01-30T11:55:01.375Z,9.20
2023-01-30T11:57:30.255Z,8.60
2023-01-30T12:00:00.782Z,9.07
2023-01-30T12:02:33.911Z,9.48
2023-01-30T12:05:03.058Z,7.82
2023-01-30T12:07:33.046Z,8.63
2023-01-30T12:10:02.087Z,9.00
2023-01-30T12:12:34.332Z,9.07
2023-01-30T12:15:11.821Z,9.60
2023-01-30T12:17:46.151Z,9.63
2023-01-30T12:20:20.363Z,9.75
2023-01-30T12:22:57.820Z,8.80
2023-01-30T12:25:28.122Z,10.73
2023-01-30T12:28:03.374Z,8.55
2023-01-30T12:30:36.886Z,9.23
2023-01-30T12:33:06.830Z,9.05
2023-01-30T12:35:48.175Z,10.35
2023-01-30T12:38:28.328Z,9.52
2023-01-30T12:41:06.734Z,7.78
2023-01-30T12:43:53.104Z,8.45
2023-01-30T12:46:36.876Z,8.80
2023-01-30T12:49:20.524Z,7.60
2023-01-30T12:52:05.106Z,7.20
2023-01-30T12:54:46.006Z,7.57
2023-01-30T12:57:21.587Z,7.97
2023-01-30T13:00:03.828Z,8.27
2023-01-30T13:02:50.037Z,8.60
2023-01-30T13:05:32.551Z,8.20
2023-01-30T13:08:29.903Z,8.70
2023-01-30T13:11:10.095Z,6.53
2023-01-30T13:13:43.201Z,9.40
2023-01-30T13:16:23.328Z,7.90
2023-01-30T13:18:55.625Z,8.90
2023-01-30T13:21:29.265Z,6.88
2023-01-30T13:24:13.885Z,7.45
2023-01-30T13:26:43.718Z,7.00
2023-01-30T13:29:16.053Z,7.80
2023-01-30T13:31:52.048Z,8.40
2023-01-30T13:34:26.664Z,8.10
2023-01-30T13:36:59.536Z,8.30
2023-01-30T13:39:47.166Z,7.72
2023-01-30T13:42:27.138Z,8.38
2023-01-30T13:44:55.785Z,7.63
2023-01-30T13:47:39.786Z,8.68
2023-01-30T13:50:23.293Z,8.45
2023-01-30T13:52:56.847Z,9.10
2023-01-30T13:55:29.781Z,7.80
2023-01-30T13:58:05.908Z,8.15
2023-01-30T14:00:34.951Z,8.63
2023-01-30T14:03:30.678Z,23.70
2023-01-30T14:06:05.065Z,10.05
2023-01-30T14:08:39.696Z,8.75
2023-01-30T14:11:36.156Z,9.77
2023-01-30T14:14:07.297Z,9.35
2023-01-30T14:16:43.589Z,8.45
2023-01-30T14:19:33.753Z,8.57
2023-01-30T14:22:04.948Z,9.80
2023-01-30T14:24:32.248Z,11.95
2023-01-30T14:27:05.579Z,9.35
2023-01-30T14:29:55.799Z,9.63
2023-01-30T14:32:52.877Z,8.90
2023-01-30T14:35:25.086Z,7.90
2023-01-30T14:38:08.889Z,10.27
2023-01-30T14:40:41.178Z,9.02
2023-01-30T14:43:36.373Z,9.80
2023-01-30T14:46:08.638Z,8.43
2023-01-30T14:48:41.739Z,11.50
2023-01-30T14:51:22.805Z,9.50
2023-01-30T14:53:55.224Z,10.18
2023-01-30T14:56:41.388Z,9.98
2023-01-30T14:59:18.410Z,8.35
2023-01-30T15:02:02.747Z,8.23
2023-01-30T15:04:32.939Z,9.00
2023-01-30T15:07:07.868Z,12.77
2023-01-30T15:09:37.234Z,14.85
2023-01-30T15:12:22.699Z,10.32
2023-01-30T15:14:59.011Z,21.70
2023-01-30T15:17:33.175Z,12.40
2023-01-30T15:20:15.988Z,12.45
2023-01-30T15:23:04.303Z,13.27
2023-01-30T15:25:43.604Z,14.70
2023-01-30T15:28:20.700Z,11.57
2023-01-30T15:30:57.485Z,11.98
2023-01-30T15:33:31.470Z,14.98
2023-01-30T15:36:00.367Z,25.15
2023-01-30T15:38:31.944Z,16.02
2023-01-30T15:41:01.894Z,25.02
2023-01-30T15:43:53.158Z,13.87
2023-01-30T15:46:28.726Z,14.95
2023-01-30T15:49:19.603Z,24.65
2023-01-30T15:51:47.345Z,24.08
2023-01-30T15:54:19.492Z,24.33
2023-01-30T15:56:49.887Z,26.70
2023-01-30T15:59:27.726Z,22.52
2023-01-30T16:02:04.322Z,16.15
2023-01-30T16:04:32.259Z,19.27
2023-01-30T16:06:59.756Z,21.40
2023-01-30T16:09:28.391Z,16.60
2023-01-30T16:11:56.312Z,16.20
2023-01-30T16:14:24.025Z,16.02
2023-01-30T16:16:56.021Z,15.88
2023-01-30T16:19:28.821Z,17.15
2023-01-30T16:21:59.117Z,14.65
2023-01-30T16:24:32.179Z,18.60
2023-01-30T16:27:03.089Z,29.63
2023-01-30T16:29:34.731Z,30.75
2023-01-30T16:32:02.355Z,34.20
2023-01-30T16:34:32.122Z,33.33
2023-01-30T16:37:04.550Z,31.92
2023-01-30T16:39:35.141Z,29.88
2023-01-30T16:42:18.827Z,23.58
2023-01-30T16:44:46.174Z,26.00
2023-01-30T16:47:23.608Z,29.77
2023-01-30T16:49:52.975Z,27.63
2023-01-30T16:52:22.973Z,46.55
2023-01-30T16:54:53.950Z,37.17
2023-01-30T16:57:35.177Z,35.15
2023-01-30T17:00:07.396Z,36.13
2023-01-30T17:02:37.614Z,33.65
2023-01-30T17:05:27.227Z,37.88
2023-01-30T17:08:00.612Z,32.65
2023-01-30T17:11:00.023Z,39.42
2023-01-30T17:13:36.316Z,38.80
2023-01-30T17:16:29.578Z,39.92
2023-01-30T17:18:58.385Z,47.45
2023-01-30T17:21:29.294Z,45.53
2023-01-30T17:24:00.009Z,41.90
2023-01-30T17:26:28.069Z,43.95
2023-01-30T17:28:57.202Z,41.45
2023-01-30T17:31:24.910Z,41.78
2023-01-30T17:33:52.300Z,41.30
2023-01-30T17:36:24.206Z,39.10
2023-01-30T17:38:52.156Z,39.17
2023-01-30T17:41:21.171Z,40.58
2023-01-30T17:43:49.859Z,48.55
2023-01-30T17:46:24.308Z,46.72
2023-01-30T17:48:51.931Z,44.55
2023-01-30T17:51:19.434Z,48.72
2023-01-30T17:53:47.058Z,49.47
2023-01-30T17:56:18.966Z,50.30
2023-01-30T17:58:47.585Z,52.05
2023-01-30T18:01:16.433Z,48.58
2023-01-30T18:03:45.269Z,48.45
2023-01-30T18:06:14.664Z,46.63
2023-01-30T18:08:42.787Z,44.83
2023-01-30T18:11:12.119Z,42.80
2023-01-30T18:13:39.896Z,44.08
2023-01-30T18:16:11.596Z,45.33
2023-01-30T18:18:39.230Z,38.53
2023-01-30T18:21:08.193Z,41.65
2023-01-30T18:23:37.450Z,29.65
2023-01-30T18:26:05.440Z,39.03
2023-01-30T18:28:33.218Z,35.58
2023-01-30T18:31:00.811Z,21.50
2023-01-30T18:33:28.272Z,27.58
2023-01-30T18:35:55.847Z,26.58
2023-01-30T18:38:24.911Z,20.33
2023-01-30T18:40:52.397Z,40.47
2023-01-30T18:43:21.393Z,21.52
2023-01-30T18:45:50.141Z,13.40
2023-01-30T18:48:17.731Z,14.50
2023-01-30T18:50:45.465Z,29.10
2023-01-30T18:53:13.025Z,30.63
2023-01-30T18:55:49.556Z,20.05
2023-01-30T18:58:17.074Z,18.20
2023-01-30T19:00:45.383Z,15.85
2023-01-30T19:03:13.046Z,20.15
2023-01-30T19:05:40.652Z,25.27
2023-01-30T19:08:10.614Z,21.38
2023-01-30T19:10:38.234Z,39.33
2023-01-30T19:13:25.680Z,26.30
2023-01-30T19:15:57.962Z,21.88
2023-01-30T19:18:27.178Z,30.85
2023-01-30T19:20:54.782Z,20.77
2023-01-30T19:23:26.592Z,23.80
2023-01-30T19:25:55.081Z,24.92
2023-01-30T19:28:24.318Z,21.05
2023-01-30T19:30:53.710Z,22.60
2023-01-30T19:33:21.257Z,23.13
2023-01-30T19:35:48.923Z,22.10
2023-01-30T19:38:16.846Z,22.15
2023-01-30T19:40:45.687Z,24.08
2023-01-30T19:43:14.306Z,23.70
2023-01-30T19:45:43.234Z,27.10
2023-01-30T19:48:11.333Z,27.35
2023-01-30T19:50:38.896Z,34.47
2023-01-30T19:53:06.590Z,28.40
2023-01-30T19:55:35.284Z,32.72
2023-01-30T19:58:03.659Z,29.67
2023-01-30T20:00:30.950Z,30.15
2023-01-30T20:03:01.221Z,32.30
2023-01-30T20:05:29.245Z,30.17
2023-01-30T20:07:57.096Z,31.27
2023-01-30T20:10:24.907Z,31.08
2023-01-30T20:12:52.517Z,33.58
2023-01-30T20:15:20.565Z,34.42
2023-01-30T20:17:48.066Z,34.92
2023-01-30T20:20:18.184Z,37.17
2023-01-30T20:22:55.659Z,39.10
2023-01-30T20:25:23.116Z,38.00
2023-01-30T20:27:50.757Z,40.00
2023-01-30T20:30:19.837Z,40.30
2023-01-30T20:32:47.743Z,41.88
2023-01-30T20:35:17.908Z,42.42
2023-01-30T20:37:45.419Z,40.47
2023-01-30T20:40:14.353Z,39.60
2023-01-30T20:42:41.861Z,38.38
2023-01-30T20:45:10.317Z,40.13
2023-01-30T20:47:40.605Z,44.83
2023-01-30T20:50:09.387Z,45.40
2023-01-30T20:52:38.779Z,43.15
2023-01-30T20:55:07.355Z,45.37
2023-01-30T20:57:34.952Z,51.38
2023-01-30T21:00:04.493Z,69.97
2023-01-30T21:02:31.892Z,57.42
2023-01-30T21:04:59.749Z,57.20
2023-01-30T21:07:28.783Z,60.03
2023-01-30T21:09:57.817Z,41.88
2023-01-30T21:12:25.719Z,34.88
2023-01-30T21:14:53.406Z,42.42
2023-01-30T21:17:20.992Z,29.50
2023-01-30T21:19:48.387Z,32.85
2023-01-30T21:22:15.620Z,34.05
2023-01-30T21:24:43.329Z,31.55
2023-01-30T21:27:12.018Z,30.48
2023-01-30T21:29:39.555Z,29.98
2023-01-30T21:32:07.115Z,32.20
2023-01-30T21:34:35.335Z,28.95
2023-01-30T21:37:21.104Z,30.00
2023-01-30T21:40:06.992Z,28.55
2023-01-30T21:42:54.244Z,23.25
2023-01-30T21:45:22.420Z,16.80
2023-01-30T21:47:54.269Z,17.58
2023-01-30T21:50:21.775Z,17.90
2023-01-30T21:52:49.413Z,24.38
2023-01-30T21:55:16.848Z,22.75
2023-01-30T21:57:45.665Z,25.83
2023-01-30T22:00:14.194Z,30.15
2023-01-30T22:02:41.439Z,32.70
2023-01-30T22:05:09.691Z,34.28
2023-01-30T22:07:37.553Z,33.38
2023-01-30T22:10:05.480Z,32.53
2023-01-30T22:12:32.899Z,31.17
2023-01-30T22:15:01.663Z,25.70
2023-01-30T22:17:28.933Z,24.80
2023-01-30T22:19:56.336Z,18.13
2023-01-30T22:22:24.824Z,17.70
2023-01-30T22:24:52.398Z,15.70
2023-01-30T22:27:19.717Z,16.98
2023-01-30T22:29:46.931Z,17.33
2023-01-30T22:32:15.637Z,15.30
2023-01-30T22:34:43.003Z,14.93
2023-01-30T22:37:10.315Z,14.23
2023-01-30T22:39:37.570Z,14.23
2023-01-30T22:42:05.251Z,15.68
2023-01-30T22:44:32.504Z,16.80
2023-01-30T22:47:00.004Z,18.17
2023-01-30T22:49:28.720Z,20.10
2023-01-30T22:51:55.958Z,22.52
2023-01-30T22:54:24.990Z,22.85
2023-01-30T22:56:52.767Z,22.98
2023-01-30T22:59:20.081Z,22.48
2023-01-30T23:01:48.446Z,23.75
2023-01-30T23:04:17.420Z,24.92
2023-01-30T23:06:47.211Z,24.25
2023-01-30T23:09:17.410Z,24.60
2023-01-30T23:12:06.644Z,25.10
2023-01-30T23:14:34.026Z,23.55
2023-01-30T23:17:01.384Z,20.60
2023-01-30T23:19:28.779Z,7.68
2023-01-30T23:21:57.577Z,6.43
2023-01-30T23:24:24.908Z,3.73
2023-01-30T23:26:52.416Z,2.78
2023-01-30T23:29:20.658Z,2.10
2023-01-30T23:31:48.105Z,3.08
2023-01-30T23:34:16.950Z,2.42
2023-01-30T23:36:44.972Z,2.00
2023-01-30T23:39:14.438Z,2.47
2023-01-30T23:41:42.682Z,2.30
2023-01-30T23:44:10.426Z,2.10
2023-01-30T23:46:39.982Z,2.10
2023-01-30T23:49:08.723Z,2.10
2023-01-30T23:51:37.762Z,16.27
2023-01-30T23:54:06.085Z,17.35
2023-01-30T23:56:36.377Z,16.58
2023-01-30T23:59:04.467Z,18.38
